Flight Track Log - Related Links

Times and Time Zones

All times are in EDT time to prevent confusion due to time zone crossing. See the N771PB flight status page for this flight to view local times or setup timezone preferences in your user account.

Time Position Orientation Groundspeed Altitude Reporting Facility
EDT Latitude Longitude Course Direction KTS MPH feet Rate Location/Type
Fri 01:01:52 AM 35.6431 -108.0614 333° Northwest 229 264 11,400  Level Albuquerque Center
Fri 01:02:15 AM 35.7329 -108.1186 89° East  Level FlightAware Approximate
Fri 01:09:15 AM 35.7381 -107.7519 128° Southeast  Level FlightAware Approximate
Fri 01:10:15 AM 35.7033 -107.6979 196° South  Level FlightAware Approximate
Fri 01:11:15 AM 35.6496 -107.7165 125° Southeast  Level FlightAware Approximate
Fri 01:12:15 AM 35.6171 -107.6605 125° Southeast  Level FlightAware Approximate
Fri 01:13:15 AM 35.5847 -107.6044 125° Southeast  Level FlightAware Approximate
Fri 01:14:15 AM 35.5522 -107.5485 126° Southeast  Level FlightAware Approximate
Fri 01:15:15 AM 35.5198 -107.4926 126° Southeast  Level FlightAware Approximate
Fri 01:16:15 AM 35.4873 -107.4367 126° Southeast  Level FlightAware Approximate
Fri 01:17:15 AM 35.4547 -107.3809 126° Southeast  Level FlightAware Approximate
Fri 01:18:15 AM 35.4221 -107.3251 126° Southeast  Level FlightAware Approximate
Fri 01:19:15 AM 35.3896 -107.2694 126° Southeast  Level FlightAware Approximate
Fri 01:20:15 AM 35.3569 -107.2137 126° Southeast  Level FlightAware Approximate
Fri 01:21:15 AM 35.3243 -107.1581 126° Southeast  Level FlightAware Approximate
Fri 01:22:15 AM 35.2916 -107.1025 126° Southeast  Level FlightAware Approximate
Fri 01:23:15 AM 35.2590 -107.0469 126° Southeast  Level FlightAware Approximate
Fri 01:24:15 AM 35.2262 -106.9914 126° Southeast  Level FlightAware Approximate
Fri 01:25:15 AM 35.1935 -106.9360 126° Southeast  Level FlightAware Approximate
Fri 01:26:15 AM 35.1607 -106.8805 126° Southeast  Level FlightAware Approximate
Fri 01:27:15 AM 35.1279 -106.8252 126° Southeast  Level FlightAware Approximate
Fri 01:28:15 AM 35.0951 -106.7699 117° Southeast  Level FlightAware Approximate
Fri 01:29:15 AM 35.0698 -106.7094 110° East  Level FlightAware Approximate
Fri 01:30:15 AM 35.0509 -106.6452 115° Southeast  Level Estimated
Fri 01:31:15 AM 35.0333 -106.6000 312° West  Level FlightAware Approximate
Fri 01:32:15 AM 35.0710 -106.6505 132° Southeast  Level Estimated
Fri 01:33:15 AM 35.0333 -106.6000 312° West  Level FlightAware Approximate
Fri 01:34:15 AM 35.0710 -106.6505 132° Southeast  Level Estimated
Fri 01:35:15 AM 35.0333 -106.6000 312° West  Level FlightAware Approximate
Fri 01:36:15 AM 35.0710 -106.6505 132° Southeast  Level Estimated
Fri 01:37:15 AM 35.0333 -106.6000 312° West  Level FlightAware Approximate
Fri 01:38:15 AM 35.0710 -106.6505 132° Southeast  Level Estimated
Fri 01:39:15 AM 35.0333 -106.6000 312° West  Level FlightAware Approximate
Fri 01:40:15 AM 35.0710 -106.6505 132° Southeast  Level Estimated
Fri 01:41:15 AM 35.0333 -106.6000 312° West  Level FlightAware Approximate
Fri 01:42:15 AM 35.0710 -106.6505 132° Southeast  Level Estimated
Fri 01:43:15 AM 35.0333 -106.6000 312° West  Level FlightAware Approximate
Fri 01:44:15 AM 35.0710 -106.6505 132° Southeast  Level Estimated
Fri 01:45:15 AM 35.0333 -106.6000 312° West  Level FlightAware Approximate
Fri 01:46:15 AM 35.0710 -106.6505 312° West  Level Estimated

Login

Don't have an account? Register now (free) for customized features, flight alerts, and more!